Time;durP1;ratioP1;P1;durP2;ratioP2;P2;SDS_P1;SDS_P2;PMS_P1;PMS_P2;Temp;Humidity;BMP_temperature;BMP_pressure;BME280_temperature;BME280_humidity;BME280_pressure;Samples;Min_cycle;Max_cycle;Signal;HPM_P1;HPM_P2
2023/05/01 00:00:17;;;;;;;3.80;3.40;;;9.40;99.90;;;;;;2030716;29;20201;-95
2023/05/01 00:01:17;;;;;;;4.57;3.65;;;9.00;99.90;;;;;;2031337;29;20789;-94
2023/05/01 00:02:18;;;;;;;5.23;3.43;;;10.00;99.90;;;;;;2030356;29;20181;-93
2023/05/01 00:03:19;;;;;;;5.27;3.80;;;10.10;99.90;;;;;;2022772;29;20301;-94
2023/05/01 00:04:21;;;;;;;3.90;3.23;;;10.60;99.90;;;;;;2022775;29;20215;-94
2023/05/01 00:05:22;;;;;;;4.53;3.70;;;10.40;99.90;;;;;;2039245;29;20231;-92
2023/05/01 00:06:23;;;;;;;5.17;3.60;;;9.10;99.90;;;;;;2015205;29;20239;-93
2023/05/01 00:07:24;;;;;;;4.03;3.00;;;9.90;99.90;;;;;;2022211;29;20308;-93
2023/05/01 00:08:25;;;;;;;4.57;3.38;;;10.30;99.90;;;;;;2017462;29;20237;-93
2023/05/01 00:09:29;;;;;;;5.03;3.60;;;9.30;99.90;;;;;;2022735;29;20269;-94
2023/05/01 00:10:30;;;;;;;5.18;3.33;;;10.00;99.90;;;;;;2016353;29;20469;-93
2023/05/01 00:11:31;;;;;;;5.13;3.75;;;9.80;99.90;;;;;;2023087;29;20237;-92
2023/05/01 00:12:32;;;;;;;3.40;3.10;;;10.60;99.90;;;;;;2031059;29;20387;-93
2023/05/01 00:13:33;;;;;;;5.30;3.77;;;10.00;99.90;;;;;;2030480;29;20239;-93
2023/05/01 00:14:34;;;;;;;3.93;3.33;;;10.20;99.90;;;;;;2041460;29;20242;-94
2023/05/01 00:15:35;;;;;;;5.37;3.60;;;9.10;99.90;;;;;;2026750;29;20285;-94
2023/05/01 00:16:36;;;;;;;4.13;3.47;;;10.50;99.90;;;;;;2026737;29;20230;-95
2023/05/01 00:17:37;;;;;;;4.05;3.40;;;8.90;99.90;;;;;;2031999;29;20234;-93
2023/05/01 00:18:38;;;;;;;4.17;3.47;;;8.80;99.90;;;;;;2016811;29;20254;-94
2023/05/01 00:19:39;;;;;;;4.90;3.67;;;10.20;99.90;;;;;;2031798;29;20237;-93
2023/05/01 00:20:40;;;;;;;3.97;3.35;;;9.50;99.90;;;;;;2023888;29;20238;-93
2023/05/01 00:21:41;;;;;;;4.33;3.50;;;10.40;99.90;;;;;;2031626;29;20239;-94
2023/05/01 00:22:42;;;;;;;6.17;3.90;;;10.20;99.90;;;;;;2038818;29;20233;-93
2023/05/01 00:23:43;;;;;;;6.70;3.60;;;9.80;99.90;;;;;;2030899;29;20240;-93
2023/05/01 00:24:44;;;;;;;3.87;3.00;;;10.30;99.90;;;;;;2031031;29;20256;-93
2023/05/01 00:25:45;;;;;;;4.30;3.30;;;9.70;99.90;;;;;;2031327;29;20287;-93
2023/05/01 00:26:45;;;;;;;4.20;3.40;;;10.30;99.90;;;;;;2023502;29;20222;-92
2023/05/01 00:27:47;;;;;;;3.87;2.93;;;9.00;99.90;;;;;;2018735;29;20239;-93
2023/05/01 00:28:49;;;;;;;5.40;3.60;;;9.40;99.90;;;;;;2015533;29;20274;-93
2023/05/01 00:29:50;;;;;;;5.70;3.47;;;9.10;99.90;;;;;;2023476;29;20226;-93
2023/05/01 00:30:51;;;;;;;5.27;3.37;;;9.70;99.90;;;;;;2023927;29;20238;-95
2023/05/01 00:31:53;;;;;;;4.40;3.50;;;10.70;99.90;;;;;;2029554;29;20664;-93
2023/05/01 00:32:54;;;;;;;3.92;3.30;;;9.60;99.90;;;;;;2015038;29;20864;-93
2023/05/01 00:33:56;;;;;;;4.57;3.45;;;9.20;99.90;;;;;;2030590;29;20229;-93
2023/05/01 00:34:56;;;;;;;4.45;3.53;;;9.10;99.90;;;;;;2038385;29;20224;-93
2023/05/01 00:35:58;;;;;;;4.57;3.57;;;9.00;99.90;;;;;;2030921;29;20240;-93
2023/05/01 00:36:59;;;;;;;5.30;3.55;;;8.90;99.90;;;;;;2023204;29;20233;-93
2023/05/01 00:38:00;;;;;;;3.90;3.37;;;9.00;99.90;;;;;;2030625;29;20236;-93
2023/05/01 00:39:01;;;;;;;4.20;3.00;;;10.30;99.90;;;;;;2028964;29;20237;-95
2023/05/01 00:40:03;;;;;;;4.68;4.00;;;10.10;99.90;;;;;;2022104;29;20189;-94
2023/05/01 00:41:04;;;;;;;5.50;3.80;;;9.00;99.90;;;;;;2030211;29;20192;-93
2023/05/01 00:42:05;;;;;;;4.50;3.73;;;10.40;99.90;;;;;;2030589;29;20203;-93
2023/05/01 00:43:06;;;;;;;4.97;3.83;;;10.30;99.90;;;;;;2033972;28;20202;-94
2023/05/01 00:44:07;;;;;;;6.43;3.53;;;10.30;99.90;;;;;;2041685;29;20187;-95
2023/05/01 00:45:11;;;;;;;4.57;3.47;;;9.50;99.90;;;;;;2033204;29;20181;-95
2023/05/01 00:46:13;;;;;;;5.82;3.70;;;9.00;99.90;;;;;;2018336;29;20170;-94
2023/05/01 00:47:17;;;;;;;4.05;3.20;;;9.00;99.90;;;;;;2017788;29;20231;-94
2023/05/01 00:48:18;;;;;;;4.85;3.60;;;9.10;99.90;;;;;;2017078;29;20276;-92
2023/05/01 00:49:21;;;;;;;3.88;3.30;;;9.10;99.90;;;;;;2032613;29;20196;-94
2023/05/01 00:50:24;;;;;;;4.00;3.50;;;9.10;99.90;;;;;;2031733;29;20240;-94
2023/05/01 00:51:29;;;;;;;3.35;2.90;;;9.10;99.90;;;;;;2023843;29;20222;-95
2023/05/01 00:52:35;;;;;;;5.05;3.70;;;10.60;99.90;;;;;;2006767;29;20226;-94
2023/05/01 00:53:36;;;;;;;5.07;3.28;;;9.10;99.90;;;;;;2017456;29;20294;-93
2023/05/01 00:54:37;;;;;;;3.90;3.25;;;9.10;99.90;;;;;;2015602;29;20286;-93
2023/05/01 00:55:42;;;;;;;5.45;3.42;;;10.10;99.90;;;;;;2015756;29;20851;-92
2023/05/01 00:56:42;;;;;;;3.92;3.10;;;9.50;99.90;;;;;;2023540;29;20232;-92
2023/05/01 00:57:43;;;;;;;6.07;3.70;;;8.70;99.90;;;;;;2029533;29;20248;-92
2023/05/01 00:58:50;;;;;;;4.87;3.17;;;9.10;99.90;;;;;;2030514;29;20726;-93
2023/05/01 00:59:51;;;;;;;3.50;3.10;;;9.30;99.90;;;;;;2031041;29;20431;-93
2023/05/01 01:00:52;;;;;;;5.68;3.45;;;9.90;99.90;;;;;;2015413;29;20234;-94
2023/05/01 01:01:54;;;;;;;5.10;3.60;;;9.40;99.90;;;;;;2015281;29;20234;-95
2023/05/01 01:02:56;;;;;;;6.90;3.58;;;9.00;99.90;;;;;;2022216;29;20244;-94
2023/05/01 01:03:56;;;;;;;4.68;3.33;;;10.00;99.90;;;;;;2022672;29;20243;-93
2023/05/01 01:04:57;;;;;;;5.13;3.70;;;9.70;99.90;;;;;;2023101;29;20237;-95
2023/05/01 01:06:34;;;;;;;6.25;3.97;;;8.20;99.90;;;;;;2014296;29;20274;-94
2023/05/01 01:08:21;;;;;;;4.35;3.30;;;9.10;99.90;;;;;;2014409;29;20230;-94
2023/05/01 01:09:39;;;;;;;4.57;3.75;;;9.00;99.90;;;;;;2032263;29;20259;-93
2023/05/01 01:10:53;;;;;;;4.53;3.33;;;8.90;99.90;;;;;;2035005;29;20240;-93
2023/05/01 01:12:28;;;;;;;4.15;3.22;;;10.00;99.90;;;;;;2028793;29;20233;-94
2023/05/01 01:13:53;;;;;;;4.93;3.78;;;8.80;99.90;;;;;;2013599;29;20259;-93
2023/05/01 01:15:26;;;;;;;4.72;3.58;;;9.60;99.90;;;;;;2036442;29;20227;-94
2023/05/01 01:16:38;;;;;;;5.47;3.30;;;9.00;99.90;;;;;;2045383;28;20227;-94
2023/05/01 01:17:52;;;;;;;4.28;3.40;;;10.40;99.90;;;;;;2032796;29;20259;-94
2023/05/01 01:19:26;;;;;;;5.07;3.83;;;9.90;99.90;;;;;;2028488;29;20243;-94
2023/05/01 01:20:36;;;;;;;5.70;3.80;;;10.50;99.90;;;;;;2008608;29;20247;-93
2023/05/01 01:21:42;;;;;;;5.15;3.72;;;9.00;99.90;;;;;;2032912;29;20240;-94
2023/05/01 01:22:52;;;;;;;3.85;3.45;;;10.10;99.90;;;;;;2032077;29;20225;-93
2023/05/01 01:24:03;;;;;;;5.13;3.75;;;10.30;99.90;;;;;;2038506;29;20251;-93
2023/05/01 01:26:01;;;;;;;4.00;3.42;;;9.80;99.90;;;;;;2017508;29;20310;-94
2023/05/01 01:28:04;;;;;;;5.13;3.60;;;9.10;99.90;;;;;;2033669;29;20319;-94
2023/05/01 01:29:40;;;;;;;3.72;3.33;;;9.10;99.90;;;;;;2022863;29;20232;-94
2023/05/01 01:31:13;;;;;;;4.78;3.33;;;8.90;99.90;;;;;;2000498;29;20228;-93
2023/05/01 01:32:54;;;;;;;5.88;3.60;;;9.00;99.90;;;;;;2018704;29;20202;-93
2023/05/01 01:34:47;;;;;;;5.28;3.83;;;9.00;99.90;;;;;;2025958;29;20308;-93
2023/05/01 01:35:56;;;;;;;4.10;3.42;;;9.00;99.90;;;;;;1998757;29;20239;-93
2023/05/01 01:37:07;;;;;;;4.30;3.75;;;10.60;99.90;;;;;;2028389;29;20222;-93
2023/05/01 01:38:36;;;;;;;4.68;3.42;;;10.50;99.90;;;;;;2017659;29;20211;-94
2023/05/01 01:39:49;;;;;;;4.93;3.88;;;9.00;99.90;;;;;;2030661;29;20774;-94
2023/05/01 01:41:01;;;;;;;3.63;3.28;;;10.40;99.90;;;;;;2031087;29;20225;-94
2023/05/01 01:42:08;;;;;;;4.50;3.38;;;10.10;99.90;;;;;;2025197;29;20744;-94
2023/05/01 01:43:12;;;;;;;5.10;3.92;;;9.20;99.90;;;;;;2031434;29;20611;-93
2023/05/01 01:44:33;;;;;;;5.35;3.47;;;9.30;99.90;;;;;;2023140;29;20252;-94
2023/05/01 01:45:42;;;;;;;4.13;3.20;;;10.70;99.90;;;;;;2020573;29;20246;-93
2023/05/01 01:46:44;;;;;;;3.92;3.20;;;9.90;99.90;;;;;;2028957;29;20292;-94
2023/05/01 01:47:47;;;;;;;4.15;3.40;;;10.70;99.90;;;;;;2023042;29;20253;-93
2023/05/01 01:48:50;;;;;;;5.03;3.78;;;9.10;99.90;;;;;;2023869;29;20258;-93
2023/05/01 01:49:52;;;;;;;6.78;3.72;;;10.00;99.90;;;;;;2031176;29;20718;-94
2023/05/01 01:50:58;;;;;;;6.07;3.80;;;9.10;99.90;;;;;;2031815;29;20749;-93
2023/05/01 01:52:02;;;;;;;4.60;3.60;;;10.50;99.90;;;;;;2024433;29;20224;-93
2023/05/01 01:53:06;;;;;;;4.13;3.25;;;10.20;99.90;;;;;;2022658;29;20233;-95
2023/05/01 01:54:08;;;;;;;5.07;3.50;;;10.60;99.90;;;;;;2031437;29;20596;-94
2023/05/01 01:55:12;;;;;;;5.57;3.88;;;10.60;99.90;;;;;;2031942;29;20181;-94
2023/05/01 01:56:16;;;;;;;4.35;3.47;;;10.40;99.90;;;;;;2027704;29;20193;-96
2023/05/01 01:57:21;;;;;;;6.90;3.70;;;10.50;99.90;;;;;;2031617;29;20181;-93
2023/05/01 01:58:25;;;;;;;3.92;3.33;;;9.30;99.90;;;;;;2023022;29;20244;-93
2023/05/01 01:59:29;;;;;;;4.07;3.40;;;10.20;99.90;;;;;;2021641;29;20327;-94
2023/05/01 02:00:31;;;;;;;3.97;3.38;;;9.20;99.90;;;;;;2023801;29;20292;-94
2023/05/01 02:01:34;;;;;;;4.47;3.60;;;10.70;99.90;;;;;;2023547;29;20273;-94
2023/05/01 02:02:38;;;;;;;5.15;3.70;;;9.10;99.90;;;;;;2032069;29;20229;-93
2023/05/01 02:03:41;;;;;;;3.63;3.00;;;9.30;99.90;;;;;;2031606;29;20261;-94
2023/05/01 02:04:44;;;;;;;4.38;3.60;;;10.50;99.90;;;;;;2038405;29;20248;-94
2023/05/01 02:05:46;;;;;;;4.63;3.00;;;10.10;99.90;;;;;;2023645;29;20264;-94
2023/05/01 02:06:48;;;;;;;6.05;3.42;;;9.70;99.90;;;;;;2023729;29;20241;-94
2023/05/01 02:07:50;;;;;;;4.45;3.55;;;9.10;99.90;;;;;;2030649;29;20232;-94
2023/05/01 02:08:52;;;;;;;5.28;3.42;;;10.60;99.90;;;;;;2023646;29;20489;-94
2023/05/01 02:09:56;;;;;;;5.85;3.60;;;10.00;99.90;;;;;;2023620;29;20281;-93
2023/05/01 02:10:58;;;;;;;4.40;3.53;;;10.30;99.90;;;;;;2017773;29;20291;-93
2023/05/01 02:12:01;;;;;;;4.68;3.75;;;9.10;99.90;;;;;;2027890;29;20309;-94
2023/05/01 02:13:02;;;;;;;4.60;3.78;;;9.90;99.90;;;;;;2018994;29;20202;-95
2023/05/01 02:14:04;;;;;;;4.47;3.50;;;10.60;99.90;;;;;;2027270;29;20182;-94
2023/05/01 02:15:08;;;;;;;3.75;3.33;;;10.50;99.90;;;;;;2032251;29;20196;-94
2023/05/01 02:16:10;;;;;;;7.38;3.75;;;9.10;99.90;;;;;;2039260;29;20181;-94
2023/05/01 02:17:13;;;;;;;4.70;3.30;;;9.20;99.90;;;;;;2024920;29;20201;-94
2023/05/01 02:18:15;;;;;;;8.48;3.45;;;10.80;99.90;;;;;;2023939;29;20179;-94
2023/05/01 02:19:16;;;;;;;4.25;3.38;;;9.20;99.90;;;;;;2032215;29;20216;-93
2023/05/01 02:20:18;;;;;;;5.10;3.60;;;10.60;99.90;;;;;;2028143;29;20193;-94
2023/05/01 02:21:20;;;;;;;4.75;4.05;;;10.50;99.90;;;;;;2032180;29;20189;-94
2023/05/01 02:22:21;;;;;;;3.83;3.47;;;10.30;99.90;;;;;;2024047;29;21733;-93
2023/05/01 02:23:24;;;;;;;4.03;3.60;;;10.60;99.90;;;;;;2025600;29;20268;-94
2023/05/01 02:24:27;;;;;;;4.43;3.63;;;9.90;99.90;;;;;;2027566;29;20233;-95
2023/05/01 02:25:33;;;;;;;5.18;3.67;;;8.70;99.90;;;;;;2024607;29;20277;-94
2023/05/01 02:26:41;;;;;;;4.65;3.72;;;9.60;99.90;;;;;;2024203;29;20249;-94
2023/05/01 02:28:11;;;;;;;3.88;3.47;;;9.20;99.90;;;;;;2023474;29;20241;-94
2023/05/01 02:29:12;;;;;;;3.75;3.20;;;9.20;99.90;;;;;;2022148;29;20258;-94
2023/05/01 02:30:13;;;;;;;4.30;3.40;;;9.50;99.90;;;;;;2015180;29;20194;-94
2023/05/01 02:31:14;;;;;;;4.40;3.63;;;9.50;99.90;;;;;;2015496;29;20227;-94
2023/05/01 02:32:15;;;;;;;4.73;3.17;;;9.20;99.90;;;;;;2008673;29;20433;-94
2023/05/01 02:33:16;;;;;;;4.57;3.43;;;9.60;99.90;;;;;;2024226;29;20222;-94
2023/05/01 02:34:16;;;;;;;9.57;4.10;;;9.20;99.90;;;;;;2023996;29;20200;-93
2023/05/01 02:35:18;;;;;;;4.40;3.40;;;9.20;99.90;;;;;;2031704;29;20218;-94
2023/05/01 02:36:19;;;;;;;4.50;3.42;;;9.20;99.90;;;;;;2023942;29;20662;-93
2023/05/01 02:37:20;;;;;;;5.53;3.63;;;9.10;99.90;;;;;;2028029;29;20185;-94
2023/05/01 02:38:21;;;;;;;4.15;3.75;;;9.30;99.90;;;;;;2015286;29;20269;-94
2023/05/01 02:39:22;;;;;;;4.80;3.40;;;10.70;99.90;;;;;;2015842;29;20746;-93
2023/05/01 02:40:23;;;;;;;4.33;3.57;;;9.30;99.90;;;;;;2025555;29;20242;-94
2023/05/01 02:41:26;;;;;;;5.63;3.80;;;9.30;99.90;;;;;;2031896;29;20467;-93
2023/05/01 02:42:28;;;;;;;4.07;3.60;;;9.80;99.90;;;;;;2030780;29;20232;-94
2023/05/01 02:43:32;;;;;;;3.70;3.28;;;9.30;99.90;;;;;;2022629;29;20222;-93
2023/05/01 02:44:41;;;;;;;5.22;3.40;;;10.40;99.90;;;;;;2023734;29;20293;-93
2023/05/01 02:45:44;;;;;;;4.50;3.38;;;10.80;99.90;;;;;;2029725;29;20229;-94
2023/05/01 02:46:48;;;;;;;4.40;3.10;;;9.50;99.90;;;;;;2015828;29;20293;-94
2023/05/01 02:47:52;;;;;;;5.15;3.88;;;10.80;99.90;;;;;;2017170;29;20242;-94
2023/05/01 02:48:54;;;;;;;4.80;3.40;;;10.50;99.90;;;;;;2024551;29;20230;-93
2023/05/01 02:49:56;;;;;;;5.72;3.70;;;9.80;99.90;;;;;;2031356;29;20268;-93
2023/05/01 02:50:58;;;;;;;4.75;3.88;;;11.00;99.90;;;;;;2031275;29;20236;-94
2023/05/01 02:51:59;;;;;;;4.43;3.85;;;9.40;99.90;;;;;;2031386;29;20244;-93
2023/05/01 02:53:02;;;;;;;4.97;3.63;;;9.40;99.90;;;;;;2029957;29;20295;-93
2023/05/01 02:54:03;;;;;;;4.43;3.83;;;8.90;99.90;;;;;;2017655;29;20231;-94
2023/05/01 02:55:05;;;;;;;4.18;3.45;;;9.70;99.90;;;;;;2015884;29;20189;-93
2023/05/01 02:56:07;;;;;;;4.28;3.58;;;9.40;99.90;;;;;;2015856;29;20210;-94
2023/05/01 02:57:09;;;;;;;4.78;3.70;;;9.40;99.90;;;;;;2032058;29;20189;-93
2023/05/01 02:58:18;;;;;;;3.53;3.08;;;9.40;99.90;;;;;;2038341;29;20212;-94
2023/05/01 02:59:19;;;;;;;3.92;3.30;;;9.40;99.90;;;;;;2017220;29;20242;-92
2023/05/01 03:00:20;;;;;;;5.03;3.70;;;9.30;99.90;;;;;;2023563;29;20193;-94
2023/05/01 03:01:21;;;;;;;4.67;3.33;;;9.30;99.90;;;;;;2023767;29;20255;-94
2023/05/01 03:02:22;;;;;;;4.47;3.65;;;10.10;99.90;;;;;;2015624;29;20473;-94
2023/05/01 03:03:23;;;;;;;4.53;3.50;;;10.50;99.90;;;;;;2007765;29;20247;-94
2023/05/01 03:04:24;;;;;;;6.37;4.00;;;9.30;99.90;;;;;;2014558;29;20248;-93
2023/05/01 03:05:25;;;;;;;4.55;3.80;;;9.30;99.90;;;;;;2023183;29;20248;-93
2023/05/01 03:06:28;;;;;;;4.88;4.20;;;9.30;99.90;;;;;;2040296;29;20255;-94
2023/05/01 03:07:33;;;;;;;6.13;4.05;;;10.60;99.90;;;;;;2027938;29;20229;-95
2023/05/01 03:08:35;;;;;;;5.50;4.30;;;10.10;99.90;;;;;;2028140;29;20319;-96
2023/05/01 03:09:36;;;;;;;5.20;4.03;;;10.80;99.90;;;;;;2034941;29;20308;-96
2023/05/01 03:10:41;;;;;;;4.72;3.80;;;9.70;99.90;;;;;;2042827;29;20231;-95
2023/05/01 03:11:42;;;;;;;4.93;4.32;;;10.00;99.90;;;;;;2028130;29;20249;-95
2023/05/01 03:12:43;;;;;;;4.63;3.77;;;10.60;99.90;;;;;;2019601;29;20234;-94
2023/05/01 03:13:45;;;;;;;5.50;3.60;;;9.90;99.90;;;;;;2034974;29;20224;-96
2023/05/01 03:14:45;;;;;;;5.95;3.67;;;9.70;99.90;;;;;;2027645;29;20237;-95
2023/05/01 03:15:46;;;;;;;5.70;4.23;;;10.10;99.90;;;;;;2027143;29;20241;-95
2023/05/01 03:16:47;;;;;;;5.53;4.00;;;9.30;99.90;;;;;;2027000;29;20237;-96
2023/05/01 03:38:55;;;;;;;7.10;4.60;;;9.10;99.90;;;;;;2036486;29;20275;-93
2023/05/01 03:39:55;;;;;;;5.68;4.40;;;9.70;99.90;;;;;;2023198;29;20235;-94
2023/05/01 03:40:57;;;;;;;6.07;4.60;;;9.00;99.90;;;;;;2015014;29;20244;-94
2023/05/01 03:41:58;;;;;;;7.07;4.72;;;9.90;99.90;;;;;;2022592;29;20248;-93
2023/05/01 03:42:59;;;;;;;7.13;4.83;;;9.30;99.90;;;;;;2015569;29;20230;-93
2023/05/01 03:43:59;;;;;;;5.10;4.17;;;9.70;99.90;;;;;;2023906;29;20293;-95
2023/05/01 03:45:00;;;;;;;6.83;5.57;;;9.00;99.90;;;;;;2024428;29;20248;-94
2023/05/01 03:46:01;;;;;;;5.70;4.77;;;9.20;99.90;;;;;;2014929;29;20321;-95
2023/05/01 03:47:02;;;;;;;5.70;4.50;;;10.10;99.90;;;;;;2022978;29;20308;-93
2023/05/01 03:48:03;;;;;;;6.03;4.37;;;9.50;99.90;;;;;;2030838;29;20240;-94
2023/05/01 03:49:04;;;;;;;7.88;4.50;;;9.00;99.90;;;;;;2022762;29;20508;-94
2023/05/01 03:50:06;;;;;;;5.43;4.40;;;9.00;99.90;;;;;;2023300;29;20193;-93
2023/05/01 03:51:07;;;;;;;5.90;4.65;;;7.90;99.90;;;;;;2015233;29;20198;-93
2023/05/01 03:52:14;;;;;;;5.63;4.70;;;8.20;99.90;;;;;;2014787;29;20203;-94
2023/05/01 03:53:15;;;;;;;5.95;4.88;;;9.00;99.90;;;;;;2021957;29;20198;-93
2023/05/01 03:54:16;;;;;;;6.68;4.72;;;9.70;99.90;;;;;;2007589;29;20187;-93
2023/05/01 03:55:17;;;;;;;9.07;5.97;;;9.00;99.90;;;;;;2011659;29;20255;-94
2023/05/01 03:56:17;;;;;;;5.87;4.90;;;10.10;99.90;;;;;;2014892;29;20204;-94
2023/05/01 03:57:25;;;;;;;8.43;5.00;;;10.50;99.90;;;;;;2022468;29;20253;-93
2023/05/01 03:58:26;;;;;;;6.35;4.90;;;10.20;99.90;;;;;;2023824;29;20238;-93
2023/05/01 03:59:27;;;;;;;6.00;4.73;;;10.30;99.90;;;;;;2015956;29;20235;-93
2023/05/01 04:00:28;;;;;;;6.73;4.83;;;9.30;99.90;;;;;;2022120;29;20476;-93
2023/05/01 04:01:29;;;;;;;6.80;4.90;;;9.40;99.90;;;;;;2022655;29;20580;-94
2023/05/01 04:02:30;;;;;;;7.33;4.90;;;10.30;99.90;;;;;;2022862;29;20241;-94
2023/05/01 04:03:31;;;;;;;7.05;5.07;;;8.90;99.90;;;;;;2030798;29;20317;-94
2023/05/01 04:04:32;;;;;;;5.50;4.63;;;10.50;99.90;;;;;;2015680;29;20305;-94
2023/05/01 04:05:33;;;;;;;6.57;5.27;;;10.60;99.90;;;;;;2016162;29;20239;-93
2023/05/01 04:06:34;;;;;;;5.73;4.63;;;9.80;99.90;;;;;;2017062;29;20278;-94
2023/05/01 04:07:35;;;;;;;5.35;4.55;;;10.10;99.90;;;;;;2016409;29;20270;-94
2023/05/01 04:08:36;;;;;;;6.50;5.53;;;10.50;99.90;;;;;;2019482;29;20237;-95
2023/05/01 04:09:37;;;;;;;6.33;4.00;;;10.00;99.90;;;;;;2011565;29;20288;-94
2023/05/01 04:10:37;;;;;;;4.80;4.00;;;9.00;99.90;;;;;;2011053;29;20239;-94
2023/05/01 04:11:38;;;;;;;7.97;4.83;;;9.10;99.90;;;;;;2016391;29;20807;-93
2023/05/01 04:12:39;;;;;;;4.97;4.20;;;7.80;99.90;;;;;;2015962;29;20286;-94
2023/05/01 04:13:40;;;;;;;5.45;4.43;;;10.60;99.90;;;;;;2026667;29;20236;-94
2023/05/01 04:14:42;;;;;;;6.03;4.87;;;9.20;99.90;;;;;;2026784;29;20225;-95
2023/05/01 04:15:45;;;;;;;6.70;4.07;;;9.10;99.90;;;;;;2016630;29;20242;-93
2023/05/01 04:16:46;;;;;;;6.15;4.50;;;10.30;99.90;;;;;;2016234;29;20727;-94
2023/05/01 04:17:47;;;;;;;6.57;4.40;;;10.00;99.90;;;;;;2023057;29;20245;-94
2023/05/01 04:18:48;;;;;;;5.50;4.20;;;8.80;99.90;;;;;;2015585;29;20265;-94
2023/05/01 04:19:49;;;;;;;5.73;4.70;;;9.90;99.90;;;;;;2007633;29;20716;-94
2023/05/01 04:20:51;;;;;;;6.03;4.53;;;9.20;99.90;;;;;;2008067;29;20300;-94
2023/05/01 04:21:53;;;;;;;6.90;4.38;;;10.70;99.90;;;;;;2008953;29;20248;-92
2023/05/01 04:22:53;;;;;;;7.43;4.20;;;10.70;99.90;;;;;;2014189;29;20267;-92
2023/05/01 04:23:54;;;;;;;5.63;4.93;;;9.70;99.90;;;;;;2021420;29;20276;-92
2023/05/01 04:24:55;;;;;;;6.90;5.78;;;9.30;99.90;;;;;;2005924;29;20230;-92
2023/05/01 04:25:56;;;;;;;6.60;5.10;;;9.40;99.90;;;;;;2012194;29;20249;-93
2023/05/01 04:26:57;;;;;;;6.17;4.60;;;10.70;99.90;;;;;;2014338;29;20230;-94
2023/05/01 04:27:58;;;;;;;7.00;5.25;;;9.20;99.90;;;;;;2014533;29;20270;-93
2023/05/01 04:28:59;;;;;;;7.17;4.53;;;10.70;99.90;;;;;;2015508;29;20291;-93
2023/05/01 04:30:00;;;;;;;4.80;4.10;;;11.10;99.90;;;;;;2016643;29;20246;-94
2023/05/01 04:31:01;;;;;;;6.70;4.20;;;9.80;99.90;;;;;;2020863;29;20294;-94
2023/05/01 04:32:02;;;;;;;7.27;5.50;;;10.30;99.90;;;;;;2020016;29;20201;-93
2023/05/01 04:33:09;;;;;;;6.67;5.00;;;9.30;99.90;;;;;;2020301;29;20277;-93
2023/05/01 04:34:09;;;;;;;7.07;5.25;;;9.50;99.90;;;;;;2027176;29;20186;-93
2023/05/01 04:35:11;;;;;;;5.37;4.57;;;10.30;99.90;;;;;;2013895;29;20202;-93
2023/05/01 04:36:13;;;;;;;5.05;4.47;;;9.50;99.90;;;;;;2015240;29;20179;-93
2023/05/01 04:37:16;;;;;;;6.55;4.15;;;9.40;99.90;;;;;;2013295;29;20183;-94
2023/05/01 04:38:17;;;;;;;5.82;4.82;;;9.00;99.90;;;;;;2012946;29;20246;-93
2023/05/01 04:39:18;;;;;;;6.23;4.87;;;9.90;99.90;;;;;;2029187;29;20290;-93
2023/05/01 04:40:19;;;;;;;5.97;4.82;;;9.40;99.90;;;;;;2021425;29;20704;-93
2023/05/01 04:41:20;;;;;;;6.70;4.43;;;11.00;99.90;;;;;;2012943;29;20221;-93
2023/05/01 04:42:21;;;;;;;6.25;4.75;;;9.40;99.90;;;;;;2021544;29;20242;-94
2023/05/01 04:43:21;;;;;;;7.70;5.90;;;9.50;99.90;;;;;;2022127;29;20237;-93
2023/05/01 04:44:22;;;;;;;5.30;4.73;;;10.30;99.90;;;;;;2013386;29;20239;-93
2023/05/01 04:45:23;;;;;;;7.00;4.90;;;10.90;99.90;;;;;;2022060;29;20244;-93
2023/05/01 04:46:24;;;;;;;5.77;4.43;;;9.40;99.90;;;;;;2030241;29;20277;-93
2023/05/01 04:47:25;;;;;;;6.80;5.47;;;10.80;99.90;;;;;;2026662;29;20305;-93
2023/05/01 04:48:26;;;;;;;5.50;4.50;;;10.70;99.90;;;;;;2028998;29;20584;-93
2023/05/01 04:49:27;;;;;;;5.87;4.20;;;10.70;99.90;;;;;;2022344;29;20237;-92
2023/05/01 04:50:28;;;;;;;7.93;5.28;;;9.40;99.90;;;;;;2014548;29;20249;-93
2023/05/01 04:51:28;;;;;;;6.77;5.10;;;9.50;99.90;;;;;;2014994;29;20242;-93
2023/05/01 04:52:29;;;;;;;6.20;5.30;;;11.00;99.90;;;;;;2014115;29;20227;-93
2023/05/01 04:53:30;;;;;;;6.07;4.63;;;10.70;99.90;;;;;;2018517;29;20233;-92
2023/05/01 04:54:31;;;;;;;6.65;4.72;;;10.80;99.90;;;;;;2022414;29;20240;-93
2023/05/01 04:55:32;;;;;;;5.87;4.70;;;10.80;99.90;;;;;;2030269;29;20232;-93
2023/05/01 04:56:33;;;;;;;5.83;5.20;;;8.40;99.90;;;;;;2022236;29;20722;-94
2023/05/01 04:57:34;;;;;;;5.90;4.97;;;10.80;99.90;;;;;;2030836;29;20657;-93
2023/05/01 04:58:35;;;;;;;6.35;5.10;;;10.80;99.90;;;;;;2015919;29;20260;-94
2023/05/01 04:59:35;;;;;;;5.53;4.43;;;10.90;99.90;;;;;;2019791;29;20262;-93
2023/05/01 05:00:36;;;;;;;7.23;4.50;;;9.60;99.90;;;;;;2014510;29;20311;-93
2023/05/01 05:01:37;;;;;;;5.70;4.73;;;9.60;99.90;;;;;;2006764;29;20242;-93
2023/05/01 05:02:37;;;;;;;5.73;4.63;;;9.70;99.90;;;;;;2015117;29;20246;-93
2023/05/01 05:03:39;;;;;;;8.07;5.20;;;9.70;99.90;;;;;;2007424;29;20767;-93
2023/05/01 05:04:40;;;;;;;6.05;4.45;;;10.40;99.90;;;;;;2022106;29;20269;-94
2023/05/01 05:05:40;;;;;;;7.20;5.20;;;11.00;99.90;;;;;;2019790;29;20242;-95
2023/05/01 05:06:41;;;;;;;5.63;5.03;;;9.60;99.90;;;;;;2014900;29;20294;-93
2023/05/01 05:07:42;;;;;;;7.80;4.93;;;10.20;99.90;;;;;;2022009;29;20274;-94
2023/05/01 05:08:42;;;;;;;7.73;5.13;;;11.00;99.90;;;;;;2021405;29;20265;-93
2023/05/01 05:09:43;;;;;;;6.77;5.03;;;9.70;99.90;;;;;;2027305;29;20233;-94
2023/05/01 05:10:44;;;;;;;5.80;5.00;;;9.70;99.90;;;;;;2019410;29;20240;-94
2023/05/01 05:11:45;;;;;;;6.30;4.85;;;11.30;99.90;;;;;;2013568;29;20239;-93
2023/05/01 05:12:46;;;;;;;6.77;4.77;;;11.00;99.90;;;;;;2014353;29;20240;-93
2023/05/01 05:13:46;;;;;;;5.97;5.37;;;10.60;99.90;;;;;;2030965;29;20237;-94
2023/05/01 05:14:47;;;;;;;5.90;5.30;;;11.20;99.90;;;;;;2030858;29;20228;-93
2023/05/01 05:15:48;;;;;;;5.40;4.47;;;10.60;99.90;;;;;;2028226;29;20261;-93
2023/05/01 05:16:48;;;;;;;6.47;5.70;;;11.10;99.90;;;;;;2034502;29;20225;-94
2023/05/01 05:17:49;;;;;;;8.87;6.20;;;11.20;99.90;;;;;;2027308;29;20233;-94
2023/05/01 05:18:50;;;;;;;7.50;5.90;;;11.30;99.90;;;;;;2027659;29;20234;-94
2023/05/01 05:19:51;;;;;;;7.37;5.77;;;11.30;99.90;;;;;;2027790;29;20241;-94
2023/05/01 05:20:51;;;;;;;8.53;5.37;;;10.20;99.90;;;;;;2027624;29;20253;-95
2023/05/01 05:21:52;;;;;;;5.27;4.53;;;10.90;99.90;;;;;;2020068;29;20227;-95
2023/05/01 05:22:53;;;;;;;6.93;4.73;;;11.50;99.90;;;;;;2026338;29;20266;-94
2023/05/01 05:23:54;;;;;;;5.47;4.40;;;11.30;99.90;;;;;;2033008;29;20337;-94
2023/05/01 05:24:58;;;;;;;5.77;4.93;;;11.30;99.90;;;;;;2015110;29;20241;-93
2023/05/01 05:26:00;;;;;;;6.05;4.72;;;9.70;99.90;;;;;;2023191;29;20249;-94
2023/05/01 05:27:02;;;;;;;5.75;4.32;;;11.10;99.90;;;;;;2022925;29;20233;-96
2023/05/01 05:28:04;;;;;;;4.47;3.97;;;10.00;99.90;;;;;;2023275;29;20190;-94
2023/05/01 05:29:05;;;;;;;6.20;4.60;;;9.90;99.90;;;;;;2014766;29;20195;-94
2023/05/01 05:30:07;;;;;;;6.20;4.38;;;11.60;99.90;;;;;;2007201;29;20799;-94
2023/05/01 05:31:07;;;;;;;6.80;4.78;;;10.10;99.90;;;;;;2015374;29;20179;-93
2023/05/01 05:32:09;;;;;;;5.73;4.40;;;11.50;99.90;;;;;;2022285;29;20199;-93
2023/05/01 05:33:10;;;;;;;4.57;4.05;;;11.40;99.90;;;;;;2030666;29;20262;-93
2023/05/01 05:34:11;;;;;;;5.15;4.47;;;10.20;99.90;;;;;;2029677;29;20198;-93
2023/05/01 05:35:11;;;;;;;5.30;4.50;;;9.70;99.90;;;;;;2015155;29;20203;-93
2023/05/01 05:36:12;;;;;;;7.67;4.57;;;10.10;99.90;;;;;;2022895;29;20187;-93
2023/05/01 05:37:14;;;;;;;4.93;4.20;;;11.70;99.90;;;;;;2030255;29;20178;-92
2023/05/01 05:38:14;;;;;;;6.60;4.93;;;11.30;99.90;;;;;;2014604;29;20201;-92
2023/05/01 05:39:15;;;;;;;5.37;4.53;;;10.50;99.90;;;;;;2014688;29;20191;-93
2023/05/01 05:40:16;;;;;;;5.00;4.13;;;10.30;99.90;;;;;;2022061;29;20206;-93
2023/05/01 05:41:17;;;;;;;7.67;4.73;;;10.30;99.90;;;;;;2021987;29;20225;-93
2023/05/01 05:42:18;;;;;;;5.83;4.50;;;10.40;99.90;;;;;;2017184;29;20190;-92
2023/05/01 05:43:19;;;;;;;4.57;4.10;;;11.00;99.90;;;;;;2015026;29;20219;-93
2023/05/01 05:44:19;;;;;;;5.20;4.50;;;11.00;99.90;;;;;;2015519;29;20247;-93
2023/05/01 05:45:20;;;;;;;6.57;4.90;;;10.60;99.90;;;;;;2007894;29;20621;-93
2023/05/01 05:46:21;;;;;;;5.72;4.68;;;11.10;99.90;;;;;;2006569;29;20242;-93
2023/05/01 05:47:22;;;;;;;6.83;4.70;;;11.70;99.90;;;;;;2014755;29;20238;-93
2023/05/01 05:48:23;;;;;;;7.73;4.73;;;12.10;99.90;;;;;;2014771;29;20234;-93
2023/05/01 05:49:24;;;;;;;7.10;5.65;;;11.70;99.90;;;;;;2014308;29;20295;-92
2023/05/01 05:50:27;;;;;;;6.57;5.07;;;12.00;99.90;;;;;;2022424;29;20234;-92
2023/05/01 05:51:28;;;;;;;7.13;5.70;;;10.50;99.90;;;;;;2022595;29;20314;-93
2023/05/01 05:52:28;;;;;;;6.83;5.17;;;10.40;99.90;;;;;;2021121;29;20250;-93
2023/05/01 05:53:29;;;;;;;6.47;5.73;;;10.40;99.90;;;;;;2005355;29;20681;-92
2023/05/01 05:54:30;;;;;;;7.00;4.97;;;11.60;99.90;;;;;;2013606;29;20329;-92
2023/05/01 05:55:31;;;;;;;7.20;5.93;;;11.00;99.90;;;;;;2014680;29;20245;-93